Архив погоды в Ижме

Метеограмма Ижма
Среда, 21 Августа
Время местн. Темп Ветер Видим Явления Облачность нижн/средн/верх Атм. давл. Влжн Точка росы ВНГО R Сост. почвы Tg s
Напр Скр Прв ур.ст ур.м изм
21:00 +14.5° штиль 0 - 20 км небо без изменений {ливневые осадки} облачно 760 764 0 97% +14.1° 300 м - - - -
18:00 +16.8° Ю 1 - 20 км слабый ливневый дождь облачно 760 763 -0.6 97% +16.4° 600 м 7 - - -
15:00 +18.1° штиль 0 - 20 км слабый ливневый дождь облачно 761 764 -0.5 94% +17.1° 1 км - - - -
12:00 +18° Ю,Ю-В 2 - 20 км слабый непрерывный дождь облачно 761 765 -0.5 90% +16.4° 300 м - - - -
09:00 +17.7° Ю,Ю-В 3 - 20 км - облачно 762 765 -0.5 89% +15.9° 200 м - - - -
06:00 +16.5° Ю,Ю-В 2 - 4 км дымка облачно 762 765 -0.2 95% +15.7° 100 м 0 Влажная (без луж) - -
03:00 +16.4° Ю 1 - 20 км - облачно 762 766 -0.3 95% +15.6° 300 м - - - -
00:00 +16.6° Ю,Ю-В 2 - 20 км - облачно 762 766 +0.1 91% +15.2° 600 м - - - -
Вторник, 20 Августа
Время местн. Темп Ветер Видим Явления Облачность нижн/средн/верх Атм. давл. Влжн Точка росы ВНГО R Сост. почвы Tg s
Напр Скр Прв ур.ст ур.м изм
21:00 +17° Ю,Ю-В 2 - 20 км - облачно 762 766 +0.1 84% +14.2° 1 км - - - -
18:00 +18.2° Ю 1 - 20 км - облачно 762 766 0 76% +14° 1 км 0 - - -
15:00 +18.5° В,Ю-В 4 - 20 км - облачно 762 766 +0.1 70% +13° 1 км - - - -
12:00 +20.5° Ю,Ю-В 4 - 20 км - облачно 762 766 -0.1 56% +11.5° 1 км - - - -
09:00 +20° В,Ю-В 5 - 20 км - облачно с прояснениями 762 766 -0.9 57% +11.1° более 2.5 км - - - -
06:00 +13.7° Ю-В 2 - 20 км - облачно с прояснениями 763 767 0 75% +9.4° - 0 Влажная (без луж) - -
03:00 +11.6° Ю-В 2 - 20 км - облачно с прояснениями 763 767 -0.1 88% +9.7° более 2.5 км - - - -
00:00 +14.4° В,Ю-В 2 - 20 км - переменная облачность 763 767 -0.5 89% +12.6° - - - - -
Понедельник, 19 Августа
Время местн. Темп Ветер Видим Явления Облачность нижн/средн/верх Атм. давл. Влжн Точка росы ВНГО R Сост. почвы Tg s
Напр Скр Прв ур.ст ур.м изм
21:00 +16.3° В 2 - 20 км - переменная облачность 764 767 -0.2 83% +13.4° - - - - -
18:00 +22.4° В,Ю-В 2 - 20 км - переменная облачность 764 767 -0.8 48% +10.9° 1.5 км 0 - - -
15:00 +23.2° В,Ю-В 3 - 20 км - переменная облачность 765 768 -1 44% +10.3° 1.5 км - - - -
12:00 +21° В 2 - 20 км - переменная облачность 766 769 -1.1 57% +12.1° 1 км - - - -
09:00 +19.4° штиль 0 - 20 км - переменная облачность 767 770 -0.5 64% +12.4° более 2.5 км - - - -
06:00 +11.2° штиль 0 - 20 км - ясно 767 771 +0.3 91% +9.8° более 2.5 км 0 Влажная (без луж) - -
03:00 +3.7° штиль 0 - 4 км дымка ясно 767 771 +0.5 95% +3° более 2.5 км - - - -
00:00 +6.1° штиль 0 - 20 км поземный туман клочками ясно 767 770 +0.5 99% +5.9° более 2.5 км - - - -
Воскресенье, 18 Августа
Время местн. Темп Ветер Видим Явления Облачность нижн/средн/верх Атм. давл. Влжн Точка росы ВНГО R Сост. почвы Tg s
Напр Скр Прв ур.ст ур.м изм
21:00 +9.6° В 1 - 20 км - переменная облачность 766 770 +0.4 97% +9.2° 1 км - - - -
18:00 +17.9° штиль 0 - 20 км - незначительная облачность 766 769 +0.3 65% +11.3° 1.5 км 0 - - -